首页
METAR-TAF:

METAR-TAF

机场 :

奥斯陆加勒穆恩机场

奥斯陆, 挪威

纬度: 60-12N, 经度: 011-05E, 海拔: 208米

当前天气观测

该预报发布于18分钟前的22:50 UTC
风速5节,风向东南
温度 -5°C
湿度 100%
气压 1009 hPa
能見度: 9000
多云层高于300英尺

METAR: ENGM 232250Z 14005KT 9000 BKN003 M05/M05 Q1009

时间: 00:08 (23:08 UTC)

预报

预报有效从23日的 20点(UTC)到 24日的 18点(UTC)
风速3节,风向多变
能見度: 9000
散云层高于500英尺
多云层高于1600英尺
短暂存在
从 23日的 20点(UTC)到 24日的 18点(UTC)
能見度: 3000
阴天层高于400英尺
小雪, 轻雾

TAF: ENGM 2320/2418 VRB03KT 9000 SCT005 BKN016 TEMPO 2320/2418 3000 -SN BR OVC004

超过4000个机场的气象观测和天气预报(METAR&TAF报告)。

可查询的气象台以黄色和红色小点在地图上表示。

将鼠标移到小点上方,可查看气象台名称。

然后点击查看天气观测和预报。

如需切换地图:点击带黑十字的绿色按钮放大地图;点击带横线的绿色按钮缩小地图;或者点击绿色箭头查看邻近地区的地图。


METAR-TAF: